Tiempo atmosférico en la estación meteorológica de Andújar, Jaén (193 m.)



Fecha
DESCASC
Temp. máxima en grados centígrados (hora)
DESCASC
Temp. mínima en grados centígrados (hora)
DESCASC
Temp. media en grados centígrados
DESCASC
Racha de viento máxima en m/sg (hora)
DESCASC
Velocidad máxima media en intervalos de 10 minutos(hora)
DESCASC
Precipitaciones diarias en mm
DESCASC
Precipitaciones de 00:00 a 06:00 en mm
DESCASC
Precipitaciones de 06:00 a 12:00 en mm
DESCASC
Precipitaciones de 12:00 a 18:00 en mm
DESCASC
Precipitaciones de 18:00 a 24:00 en mm
DESCASC
14-12-2019 15 (16:00) 10.3 (23:59) 12.7 5.83 (13:50) 2.78 (11:10) 0 0 0 0 0
13-12-2019 16 (17:00) 11 (01:20) 13.5 10.83 (15:50) 6.67 (15:20) 0.1 0.1 0 0 0
12-12-2019 12.4 (19:40) 0.7 (04:00) 6.5 9.17 (22:00) 5.28 (22:00) 0 0 0 0 0
11-12-2019 13.7 (15:40) 0.3 (00:00) 7 4.72 (16:20) 3.33 (15:30) 0 0 0 0 0
10-12-2019 18.9 (16:10) 2.6 (00:00) 10.7 6.39 (10:20) 3.89 (10:30) 0 0 0 0 0
09-12-2019 18.6 (15:30) 6.4 (00:00) 12.5 3.33 (12:20) 1.39 (12:20) 0 0 0 0 0
08-12-2019 16.1 (14:40) 1.2 (00:00) 8.7 3.61 (16:00) 2.78 (16:00) 0 0 0 0 0
07-12-2019 19.7 (16:20) 3.1 (00:00) 11.4 3.89 (11:20) 2.22 (11:20) 0 0 0 0 0
06-12-2019 18.8 (15:20) 7.1 (00:00) 12.9 7.78 (13:20) 4.44 (13:20) 0 0 0 0 0
05-12-2019 16.8 (15:20) 8 (00:00) 12.4 8.06 (13:00) 4.44 (13:00) 0 0 0 0 0
04-12-2019 14.8 (16:50) 3.8 (00:00) 9.3 5.28 (15:00) 3.61 (15:00) 0 0 0 0 0
03-12-2019 16.8 (15:20) 8.3 (00:00) 12.5 7.78 (13:00) 4.72 (13:00) 0 0 0 0 0
02-12-2019 17.5 (16:10) 7.9 (00:00) 12.7 8.61 (13:00) 3.33 (12:00) 11.8 11.7 0 0.1 0
01-12-2019 14.6 (01:10) 9.3 (00:00) 12 6.67 (05:30) 4.44 (05:30) 9.8 1.8 0 8 0
30-11-2019 19.6 (14:20) 6.1 (00:00) 12.9 5.28 (17:10) 3.61 (17:10) 0 0 0 0 0
29-11-2019 19.5 (15:50) 9 (00:00) 14.3 2.78 (10:40) 1.67 (10:00) 0 0 0 0 0
28-11-2019 15.5 (16:20) 11.2 (00:00) 13.3 3.61 (02:00) 1.94 (08:00) 0 0 0 0 0
27-11-2019 18.4 (14:20) 10.9 (00:00) 14.6 8.61 (03:00) 5.28 (03:10) 0.2 0.2 0 0 0
26-11-2019 17.8 (15:10) 12.7 (00:00) 15.2 7.5 (23:10) 4.44 (23:10) 0.6 0.2 0 0 0.4
25-11-2019 13.5 (17:50) 10.3 (00:00) 11.9 3.33 (13:30) 2.22 (14:20) 5.3 0.4 4.3 0.6 0
24-11-2019 15 (15:50) 3 (00:00) 9 5.28 (14:40) 3.33 (16:40) 0 0 0 0 0
23-11-2019 15.5 (16:10) 8.2 (00:00) 11.8 15.28 (03:30) 8.61 (03:30) 0.4 0.4 0 0 0
22-11-2019 16.8 (18:20) 10.8 (00:00) 13.8 20.28 (18:20) 11.39 (18:20) 31.3 1.3 3.2 26.6 0.2
21-11-2019 -- (--) -- (--) -- -- (--) -- (--) -- -- -- -- 0.4
20-11-2019 -- (--) -- (--) -- -- (--) -- (--) -- -- -- -- --
19-11-2019 -- (--) -- (--) -- -- (--) -- (--) -- -- -- -- --
18-11-2019 -- (--) -- (--) -- -- (--) -- (--) -- -- -- -- --
17-11-2019 -- (--) -- (--) -- -- (--) -- (--) -- 0 0.5 5.8 --
16-11-2019 13.8 (15:20) -2.4 (-00:0) 5.7 5.83 (16:40) 3.89 (16:40) 0 0 0 0 0

Gráficas

Temp. máximas Temp. mínimas Temp. medias Precipitaciones Rachas de viento máximas Velocidades máximas media en intervalos de 10 minutos

Datos horarios

Fecha y hora oficial Temperatura (ºC) Velocidad del viento (km/h) Dirección del viento Racha (km/h) Dirección de racha Precipitación (mm) Presión (hPa) Tendencia (hPa) Humedad (%)
2019-12-15 23:00:00 6.3 2 Sudeste 6 Este 0 987.4 -1.1 99
2019-12-15 22:00:00 7.3 2 Este 5 Este 0 987.7 -1 98
2019-12-15 21:00:00 8.4 0 Calma 4 Sudeste 0 988.2 -0.7 95
2019-12-15 20:00:00 9.2 0 Calma 5 Sudeste 0 988.5 -0.9 88
2019-12-15 19:00:00 10 3 Sudoeste 5 Sudoeste 0 988.7 -1.2 83
2019-12-15 18:00:00 11.3 0 Calma 4 Sur 0 988.9 -1.8 73
2019-12-15 17:00:00 15.1 0 Calma 6 Oeste 0 989.4 -2.2 49
2019-12-15 16:00:00 16 0 Calma 6 Noroeste 0 989.9 -3 45
2019-12-15 15:00:00 15.5 3 Nordeste 10 Sudeste 0 990.7 -3.3 46
2019-12-15 14:00:00 15.8 0 Calma 9 Sudeste 0 991.6 -3.1 46
2019-12-15 13:00:00 14.1 2 Este 12 Este 0 992.9 -1.7 55
2019-12-15 12:00:00 11.8 6 Sudeste 14 Este 0 994 -0.4 67
2019-12-15 11:00:00 10.1 8 Este 14 Este 0 994.7 0.6 75
2019-12-15 10:00:00 8.9 5 Este 10 Este 0 994.6 0.9 86
2019-12-15 09:00:00 8.6 4 Este 9 Este 0 994.4 0.9 84
2019-12-15 08:00:00 8.8 4 Sudeste 8 Sudeste 0 994.1 0 85
2019-12-15 07:00:00 8.5 0 Calma 6 Este 0 993.7 -0.7 91
2019-12-15 06:00:00 8.8 3 Sudeste 9 Este 0 993.5 -1.2 89
2019-12-15 05:00:00 9.3 3 Sudeste 9 Este 0 994.1 -0.9 88
2019-12-15 04:00:00 9.8 5 Sudeste 9 Este 0 994.4 -1.3 88
2019-12-15 03:00:00 9.7 3 Este 6 Este 0 994.7 -1.1 95
2019-12-15 02:00:00 10.1 3 Noroeste 7 Noroeste 0 995 -0.8 94
2019-12-15 01:00:00 10.3 0 Calma 6 Oeste 0 995.7 -0.2 94
2019-12-15 00:00:00 10.4 0 Calma 9 Oeste 0 995.8 -0.6 92
2019-12-14 23:00:00 10.9 0 Calma 8 Norte 0 995.8 -0.8 87
2019-12-14 22:00:00 11.6 0 Calma 3 Oeste 0 995.9 -0.4 84
2019-12-14 21:00:00 11.4 0 Calma 5 Este 0 996.4 0.4 85
2019-12-14 20:00:00 11.8 0 Calma 4 Sudoeste 0 996.6 0.5 78
2019-12-14 19:00:00 12.4 3 Sur 6 Sur 0 996.3 0.2 71
2019-12-14 18:00:00 12.8 3 Sur 7 Sudoeste 0 996 -0.1 65
2019-12-14 17:00:00 13.9 4 Sudoeste 7 Sudoeste 0 996.1 -0.5 57
2019-12-14 16:00:00 14.1 2 Sudoeste 9 Sudoeste 0 996.1 -1.1 53
2019-12-14 15:00:00 14.4 4 Sur 15 Oeste 0 996.1 -2 55
2019-12-14 14:00:00 14 9 Oeste 21 Oeste 0 996.6 -1.6 61
2019-12-14 13:00:00 14.3 6 Oeste 13 Oeste 0 997.2 -0.5 63
2019-12-14 12:00:00 13.6 7 Oeste 14 Oeste 0 998.1 0.7 69
2019-12-14 11:00:00 12.7 9 Sudoeste 13 Sudoeste 0 998.2 1 74
2019-12-14 10:00:00 11.9 0 Calma 6 Oeste 0 997.7 1 94
2019-12-14 09:00:00 11.5 0 Calma 7 Noroeste 0 997.4 0.8 97
2019-12-14 08:00:00 11.6 2 Noroeste 9 Oeste 0 997.2 0.3 97
2019-12-14 07:00:00 11.6 0 Calma 5 Oeste 0 996.7 -0.7 99
2019-12-14 06:00:00 11.5 0 Calma 4 Este 0 996.6 -1 99
2019-12-14 05:00:00 11.5 0 Calma 5 Oeste 0 996.9 -0.6 98
2019-12-14 04:00:00 11.5 0 Calma 6 Sudoeste 0 997.4 -0.4 97
2019-12-14 03:00:00 12.4 0 Calma 6 Noroeste 0 997.6 -0.2 96
2019-12-14 02:00:00 12.1 4 Noroeste 7 Noroeste 0 997.5 -0.2 96
2019-12-14 01:00:00 11.9 3 Oeste 6 Oeste 0 997.8 0.2 95
2019-12-14 00:00:00 12 5 Oeste 6 Oeste 0 997.8 0.3 96
2019-12-13 23:00:00 12.7 0 Calma 9 Noroeste 0 997.7 0.4 92
2019-12-13 22:00:00 12.9 4 Noroeste 17 Oeste 0 997.6 0.4 88
2019-12-13 21:00:00 14 12 Oeste 18 Oeste 0 997.5 0.6 81
2019-12-13 20:00:00 14.3 14 Oeste 21 Sudoeste 0 997.3 0.9 77
2019-12-13 19:00:00 14.5 13 Sudoeste 20 Oeste 0 997.2 1.1 76
2019-12-13 18:00:00 14.7 9 Sudoeste 24 Oeste 0 996.9 1.1 74
2019-12-13 17:00:00 15.9 19 Oeste 33 Oeste 0 996.4 0 69
2019-12-13 16:00:00 15.1 21 Sudoeste 39 Sudoeste 0 996.1 -0.9 76
2019-12-13 15:00:00 15.4 21 Oeste 33 Oeste 0 995.8 -2.1 72
2019-12-13 14:00:00 15.3 17 Oeste 31 Oeste 0 996.4 -1.5 75
2019-12-13 13:00:00 14.7 20 Sudoeste 30 Oeste 0 997 -0.2 77
2019-12-13 12:00:00 14.2 17 Oeste 30 Oeste 0 997.9 1.5 81
2019-12-13 11:00:00 13.8 13 Oeste 23 Oeste 0 997.9 1.7 87
2019-12-13 10:00:00 13.1 9 Oeste 28 Sudoeste 0 997.2 1.7 87
2019-12-13 09:00:00 12.8 18 Sudoeste 33 Oeste 0 996.4 1.1 87
2019-12-13 08:00:00 12.4 21 Oeste 33 Sudoeste 0 996.2 0.8 95
2019-12-13 07:00:00 12.2 19 Sudoeste 34 Sudoeste 0 995.5 -0.1 97
2019-12-13 06:00:00 12 19 Oeste 35 Oeste 0 995.3 -0.7 97
2019-12-13 05:00:00 12.1 17 Oeste 35 Oeste 0.1 995.4 -0.4 97
2019-12-13 04:00:00 11.7 13 Oeste 28 Oeste 0 995.6 -0.7 97
2019-12-13 03:00:00 11.4 18 Oeste 30 Oeste 0 996 -0.9 96
2019-12-13 02:00:00 11.3 16 Oeste 28 Oeste 0 995.8 -1 95
2019-12-13 01:00:00 11.2 13 Oeste 28 Oeste 0 996.3 -0.8 92
2019-12-13 00:00:00 11.3 14 Oeste 28 Oeste 0 996.9 0.2 90
2019-12-12 23:00:00 11.2 14 Oeste 30 Sudoeste 0 996.8 -0.2 87
2019-12-12 22:00:00 11.6 19 Oeste 33 Oeste 0 997.1 -0.2 79
2019-12-12 21:00:00 12.2 15 Oeste 25 Oeste 0 996.7 -1 68
2019-12-12 20:00:00 12.3 17 Sudoeste 30 Oeste 0 997 -0.9 68
2019-12-12 19:00:00 11.9 12 Oeste 22 Oeste 0 997.3 -0.7 68
2019-12-12 18:00:00 11.7 8 Oeste 15 Oeste 0 997.7 -1.1 69
2019-12-12 17:00:00 11.8 10 Oeste 24 Oeste 0 997.9 -1.6 66
2019-12-12 16:00:00 12 18 Oeste 28 Oeste 0 998 -2.9 63
2019-12-12 15:00:00 11.5 15 Oeste 22 Oeste 0 998.8 -3.7 63
2019-12-12 14:00:00 11 10 Oeste 19 Sudoeste 0 999.5 -3.5 67
2019-12-12 13:00:00 10.2 9 Oeste 15 Noroeste 0 1000.9 -1.3 72
2019-12-12 12:00:00 8.8 5 Noroeste 11 Noroeste 0 1002.5 0.3 74
2019-12-12 11:00:00 7.5 8 Noroeste 13 Noroeste 0 1003 1.2 90
2019-12-12 10:00:00 4.5 0 Calma 4 Sudeste 0 1002.2 0.9 99
2019-12-12 09:00:00 2.7 0 Calma 3 Sudeste 0 1002.2 0.4 99
2019-12-12 08:00:00 2.6 0 Calma 11 Oeste 0 1001.8 -0.1 99
2019-12-12 07:00:00 2.4 6 Oeste 8 Oeste 0 1001.3 -0.8 99
2019-12-12 06:00:00 1.3 0 Calma 6 Noroeste 0 1001.8 -0.3 99
2019-12-12 05:00:00 1.6 0 Calma 4 Noroeste 0 1001.9 -0.4 99
2019-12-12 04:00:00 1.4 0 Calma -- -- 0 1002.1 -0.5 99
2019-12-12 03:00:00 1.5 0 Calma -- -- 0 1002.1 -0.5 99
2019-12-12 02:00:00 3 0 Calma -- -- 0 1002.3 -0.4 99
2019-12-12 01:00:00 3.2 0 Calma 3 Oeste 0 1002.6 0.2 99
2019-12-12 00:00:00 4.7 0 Calma 4 Este 0 1002.6 0.3 98
2019-12-11 23:00:00 5.4 0 Calma -- -- 0 1002.7 0.5 95
2019-12-11 22:00:00 6.4 0 Calma 10 Oeste 0 1002.4 0.5 91
2019-12-11 21:00:00 7.5 0 Calma 10 Oeste 0 1002.3 1.6 85
2019-12-11 20:00:00 8.3 0 Calma 13 Oeste 0 1002.2 2.2 82
2019-12-11 19:00:00 10.8 7 Oeste 10 Oeste 0 1001.9 2.6 81
2019-12-11 18:00:00 11.7 7 Oeste 14 Oeste 0 1000.7 1.1 72
2019-12-11 17:00:00 12.8 8 Noroeste 17 Oeste 0 1000 0.3 67
2019-12-11 16:00:00 12.9 10 Oeste 16 Oeste 0 999.3 -1.5 64
2019-12-11 15:00:00 12.1 8 Noroeste 14 Noroeste 0 999.6 -1.9 63
2019-12-11 14:00:00 11.3 3 Noroeste 14 Noroeste 0 999.7 -2.2 67
2019-12-11 13:00:00 10.2 4 Noroeste 9 Noroeste 0 1000.8 -0.8 69
2019-12-11 12:00:00 9.5 0 Calma 5 Sudoeste 0 1001.5 -0.1 68
2019-12-11 11:00:00 7.4 0 Calma 8 Este 0 1001.9 1 98
2019-12-11 10:00:00 4.1 4 Este 8 Sudeste 0 1001.6 0.7 99
2019-12-11 09:00:00 1.7 0 Calma -- -- 0 1001.6 1.1 99
2019-12-11 08:00:00 1.1 0 Calma -- -- 0 1000.9 0.2 99
2019-12-11 07:00:00 1.5 0 Calma -- -- 0 1000.9 0.1 99
2019-12-11 06:00:00 1.4 0 Calma -- -- 0 1000.5 -0.5 99
2019-12-11 05:00:00 1.9 0 Calma -- -- 0 1000.7 -0.4 99
2019-12-11 04:00:00 1.9 0 Calma 5 Este 0 1000.8 -0.8 99
2019-12-11 03:00:00 2.5 0 Calma 4 Este 0 1001 -0.6 99
2019-12-11 02:00:00 3 0 Calma -- -- 0 1001.1 -0.3 99
2019-12-11 01:00:00 3.8 0 Calma 3 Sudeste 0 1001.6 0.5 99
2019-12-11 00:00:00 4.2 0 Calma -- -- 0 1001.6 0.5 99
2019-12-10 23:00:00 5 0 Calma 7 Este 0 1001.4 0.2 98
2019-12-10 22:00:00 6.2 3 Este 6 Este 0 1001.1 0 95
2019-12-10 21:00:00 6.4 4 Este 6 Este 0 1001.1 0.6 93
2019-12-10 20:00:00 8.1 0 Calma 5 Oeste 0 1001.2 0.6 85
2019-12-10 19:00:00 9.1 5 Oeste 7 Oeste 0 1001.1 0.1 74
2019-12-10 18:00:00 11.3 3 Sudoeste 6 Sur 0 1000.5 -0.6 60
2019-12-10 17:00:00 18.3 0 Calma 8 Este 0 1000.6 -1.4 34
2019-12-10 16:00:00 18.6 3 Este 14 Sudeste 0 1001 -2.1 32
2019-12-10 15:00:00 16.7 10 Este 17 Este 0 1001.1 -3 35
2019-12-10 14:00:00 15.8 8 Este 21 Este 0 1002 -2.4 35
2019-12-10 13:00:00 14.7 5 Este 14 Sudeste 0 1003.1 -1.2 43
2019-12-10 12:00:00 11.7 8 Este 18 Este 0 1004.1 -0.4 62
2019-12-10 11:00:00 9.9 13 Este 23 Este 0 1004.4 -0.1 74
2019-12-10 10:00:00 6.9 6 Este 11 Este 0 1004.3 -0.5 99
2019-12-10 09:00:00 3.1 0 Calma 5 Sudeste 0 1004.5 0.3 99
2019-12-10 08:00:00 3.6 2 Este 8 Este 0 1004.5 0.3 99
2019-12-10 07:00:00 3.9 0 Calma 5 Este 0 1004.8 0.2 99
2019-12-10 06:00:00 3.1 0 Calma 6 Este 0 1004.2 -0.6 99
2019-12-10 05:00:00 3.6 0 Calma -- -- 0 1004.2 -1 99
2019-12-10 04:00:00 4.9 0 Calma -- -- 0 1004.6 -0.7 99
2019-12-10 03:00:00 5.3 0 Calma -- -- 0 1004.8 -0.7 99
2019-12-10 02:00:00 6.7 0 Calma -- -- 0 1005.2 0.2 99
2019-12-10 01:00:00 6.4 0 Calma 3 Sudeste 0 1005.3 0.3 99
2019-12-10 00:00:00 6.6 3 Este 5 Sudeste 0 1005.5 1.1 99
2019-12-09 23:00:00 7.2 0 Calma 3 Sur 0 1005 0.9 99
2019-12-09 22:00:00 8 0 Calma 3 Este 0 1005 1 99
2019-12-09 21:00:00 9.1 0 Calma -- -- 0 1004.4 0.6 98
2019-12-09 20:00:00 9.4 0 Calma -- -- 0 1004.1 0.4 96
2019-12-09 19:00:00 10.6 0 Calma 5 Sudoeste 0 1004 0.4 91
2019-12-09 18:00:00 12.2 0 Calma 6 Sudoeste 0 1003.8 0 80
2019-12-09 17:00:00 16.9 3 Sur 6 Este 0 1003.7 -0.9 53
2019-12-09 16:00:00 16.1 0 Calma 7 Este 0 1003.6 -1.7 55
2019-12-09 15:00:00 17.2 0 Calma 8 Sudeste 0 1003.8 -2 52
2019-12-09 14:00:00 16.7 2 Oeste 8 Este 0 1004.6 -1.4 58
2019-12-09 13:00:00 15.3 0 Calma 12 Este 0 1005.3 -0.1 57
2019-12-09 12:00:00 14.9 3 Este 8 Sudeste 0 1005.8 1.1 66
2019-12-09 11:00:00 13 0 Calma 5 Sudeste 0 1006 1.8 79
2019-12-09 10:00:00 12 0 Calma 6 Sudeste 0 1005.4 1.4 88
2019-12-09 09:00:00 10.1 0 Calma 2 Sudeste 0 1004.7 1.3 97
2019-12-09 08:00:00 10.2 0 Calma 9 Sudeste 0 1004.2 1 95
2019-12-09 07:00:00 10 0 Calma 5 Sudeste 0 1004 0.9 98
2019-12-09 06:00:00 10 0 Calma 6 Este 0 1003.4 0.1 98
2019-12-09 05:00:00 9.6 0 Calma 0 Calma 0 1003.2 0.1 98
2019-12-09 04:00:00 9.6 0 Calma 3 Este 0 1003.1 -0.1 98
2019-12-09 03:00:00 8.8 0 Calma 4 Sudeste 0 1003.3 0.4 98
2019-12-09 02:00:00 8.8 0 Calma 2 Sudoeste 0 1003.1 0.4 97
2019-12-09 01:00:00 9.6 0 Calma 3 Norte 0 1003.2 0.9 96
2019-12-09 00:00:00 11.4 0 Calma 9 Noroeste 0 1002.9 1 87
2019-12-08 23:00:00 10.7 0 Calma 5 Noroeste 0 1002.7 0.7 91
2019-12-08 22:00:00 9.8 3 Oeste 7 Oeste 0 1002.3 0.6 91
2019-12-08 21:00:00 11.6 3 Noroeste 7 Noroeste 0 1001.9 0.6 82
2019-12-08 20:00:00 11.9 5 Noroeste 8 Oeste 0 1002 1.1 80
2019-12-08 19:00:00 12.9 5 Noroeste 7 Noroeste 0 1001.7 1 73
2019-12-08 18:00:00 12.8 5 Oeste 6 Oeste 0 1001.3 0.6 73
2019-12-08 17:00:00 13.9 5 Oeste 13 Noroeste 0 1000.9 -0.3 63
2019-12-08 16:00:00 14.8 10 Noroeste 13 Noroeste 0 1000.7 -1.5 59
2019-12-08 15:00:00 15.5 4 Noroeste 9 Noroeste 0 1000.7 -2.4 53
2019-12-08 14:00:00 14.1 0 Calma 9 Sudeste 0 1001.2 -2.3 56
2019-12-08 13:00:00 11.8 3 Este 10 Este 0 1002.2 -0.9 63
2019-12-08 12:00:00 10.2 3 Este 12 Sudeste 0 1003.1 0.6 72
2019-12-08 11:00:00 7.2 0 Calma 6 Sur 0 1003.5 1.3 99
2019-12-08 10:00:00 4.3 0 Calma 4 Noroeste 0 1003.1 1.7 99
2019-12-08 09:00:00 2.1 0 Calma 6 Este 0 1002.5 1.3 99
2019-12-08 08:00:00 2 0 Calma 3 Este 0 1002.2 0.9 99
2019-12-08 07:00:00 1.7 0 Calma 4 Este 0 1001.4 0.2 99
2019-12-08 06:00:00 2.6 0 Calma 2 Oeste 0 1001.2 -0.3 99
2019-12-08 05:00:00 2.7 0 Calma -- -- 0 1001.3 -0.1 99
2019-12-08 04:00:00 3.2 0 Calma 0 Calma 0 1001.2 -0.1 99
2019-12-08 03:00:00 4 0 Calma -- -- 0 1001.5 0.2 99
2019-12-08 02:00:00 4.3 0 Calma 4 Este 0 1001.4 0.5 99
2019-12-08 01:00:00 5 0 Calma 0 Calma 0 1001.3 0.7 99
2019-12-08 00:00:00 5.5 0 Calma 0 Calma 0 1001.3 1.1 99
2019-12-07 23:00:00 6.6 0 Calma 5 Este 0 1000.9 1.3 99
2019-12-07 22:00:00 6.9 0 Calma 5 Este 0 1000.6 1.7 98
2019-12-07 21:00:00 7.5 4 Este 6 Este 0 1000.2 1.8 97
2019-12-07 20:00:00 8.5 0 Calma 4 Oeste 0 999.6 1.6 92
2019-12-07 19:00:00 10.4 5 Oeste 7 Oeste 0 998.9 1.2 84
2019-12-07 18:00:00 11.9 0 Calma 5 Sur 0 998.4 0.7 70
2019-12-07 17:00:00 16.7 0 Calma 5 Sur 0 998 0 43
2019-12-07 16:00:00 17.6 3 Sur 10 Sudeste 0 997.7 -1.3 41
2019-12-07 15:00:00 17.1 4 Sudeste 12 Sudeste 0 997.7 -2.1 42
2019-12-07 14:00:00 15.7 4 Este 12 Este 0 998 -1.8 50
2019-12-07 13:00:00 13.9 6 Este 14 Este 0 999 -0.5 56
2019-12-07 12:00:00 12.3 6 Este 14 Este 0 999.8 0.9 63
2019-12-07 11:00:00 10.1 6 Este 12 Este 0 999.8 1.2 98
2019-12-07 10:00:00 6 0 Calma 6 Este 0 999.5 1.5 99
2019-12-07 09:00:00 4.5 3 Sudeste 5 Sudeste 0 998.9 1.1 99
2019-12-07 08:00:00 3.7 0 Calma 6 Noroeste 0 998.6 0.8 99
2019-12-07 07:00:00 3.5 2 Este 5 Este 0 998 0.2 99
2019-12-07 06:00:00 3.9 0 Calma -- -- 0 997.8 0.3 99
2019-12-07 05:00:00 5.4 0 Calma -- -- 0 997.8 0.7 99
2019-12-07 04:00:00 5.6 0 Calma 5 Oeste 0 997.8 0.8 99
2019-12-07 03:00:00 5.6 0 Calma 3 Sudeste 0 997.5 0.4 99
2019-12-07 02:00:00 7 0 Calma 4 Noroeste 0 997.1 0.4 98
2019-12-07 01:00:00 8.3 0 Calma 9 Sudeste 0 997 0.6 94
2019-12-07 00:00:00 8.6 0 Calma 0 Calma 0 997.1 1 98
2019-12-06 23:00:00 9 0 Calma 0 Calma 0 996.7 0.9 98
2019-12-06 22:00:00 8.3 0 Calma 5 Sudeste 0 996.4 1.3 96
2019-12-06 21:00:00 9.6 4 Sudeste 6 Sudeste 0 996.1 1.6 92
2019-12-06 20:00:00 10.2 0 Calma 4 Sur 0 995.8 1.7 87
2019-12-06 19:00:00 12.3 0 Calma 5 Nordeste 0 995.1 1.3 72
2019-12-06 18:00:00 13.5 0 Calma 11 Este 0 994.5 0.8 63
2019-12-06 17:00:00 17.5 6 Este 26 Este 0 994.1 -0.4 46
2019-12-06 16:00:00 18.4 6 Este 21 Este 0 993.8 -1.6 45
2019-12-06 15:00:00 18.5 9 Este 26 Este 0 993.7 -2.2 45
2019-12-06 14:00:00 17.7 11 Este 28 Este 0 994.5 -2.2 46
2019-12-06 13:00:00 17 13 Este 27 Este 0 995.4 -0.7 51
2019-12-06 12:00:00 15.7 9 Este 25 Sudeste 0 995.9 0.3 54
2019-12-06 11:00:00 13.6 13 Este 22 Este 0 996.7 1.7 67
2019-12-06 10:00:00 11.4 5 Este 10 Sudeste 0 996.1 1.7 77
2019-12-06 09:00:00 8.4 2 Este 9 Este 0 995.6 1.7 91
2019-12-06 08:00:00 7.7 0 Calma 11 Sudeste 0 995 1 91
2019-12-06 07:00:00 8.3 5 Este 19 Este 0 994.4 0.5 86
2019-12-06 06:00:00 8.3 5 Este 12 Este 0 993.9 0.7 84
2019-12-06 05:00:00 7.4 3 Este 12 Este 0 994 0.6 90
2019-12-06 04:00:00 8.7 9 Este 23 Sudeste 0 993.9 0.1 80
2019-12-06 03:00:00 9.2 8 Sudeste 17 Este 0 993.2 -0.8 78
2019-12-06 02:00:00 8.6 3 Sudeste 10 Este 0 993.4 0.1 83
2019-12-06 01:00:00 9 5 Sudeste 11 Este 0 993.8 0.8 81
2019-12-06 00:00:00 9.2 3 Sudeste 14 Este 0 994 1.4 80
2019-12-05 23:00:00 10.7 10 Este 19 Sudeste 0 993.3 1.3 72
2019-12-05 22:00:00 10.4 7 Este 13 Este 0 993 1.6 75
2019-12-05 21:00:00 10.5 7 Este 14 Este 0 992.6 1.8 78
2019-12-05 20:00:00 11.6 5 Este 10 Sur 0 992 2 75
2019-12-05 19:00:00 11.5 0 Calma 6 Este 0 991.4 1.7 76
2019-12-05 18:00:00 13.5 3 Este 14 Este 0 990.8 1 59
2019-12-05 17:00:00 15.6 6 Este 17 Sudeste 0 990 0.1 50
2019-12-05 16:00:00 16.6 5 Este 20 Este 0 989.7 -0.7 49
2019-12-05 15:00:00 15.5 13 Este 23 Este 0 989.8 -1 51
2019-12-05 14:00:00 14.8 9 Este 24 Este 0 989.9 -0.7 52
2019-12-05 13:00:00 14.3 16 Este 29 Este 0 990.4 0.2 56
2019-12-05 12:00:00 14.3 9 Este 22 Este 0 990.8 1.1 58
2019-12-05 11:00:00 12.3 8 Este 14 Este 0 990.6 1.4 77
2019-12-05 10:00:00 10.2 4 Este 8 Este 0 990.2 2.1 99
2019-12-05 09:00:00 8.3 0 Calma 5 Sur 0 989.7 1.9 99
2019-12-05 08:00:00 8.8 0 Calma 5 Este 0 989.2 1.5 99
2019-12-05 07:00:00 9.5 5 Sudeste 9 Sudeste 0 988.1 0.2 98
2019-12-05 06:00:00 9.1 0 Calma -- -- 0 987.8 0.4 95
2019-12-05 05:00:00 9.5 0 Calma -- -- 0 987.7 0.6 95
2019-12-05 04:00:00 9.9 0 Calma 4 Oeste 0 987.9 1 94
2019-12-05 03:00:00 10 0 Calma 8 Sudoeste 0 987.4 0.8 97
2019-12-05 02:00:00 10.1 0 Calma -- -- 0 987.1 1 98
2019-12-05 01:00:00 10.3 0 Calma 0 Calma 0 986.9 1 96
2019-12-05 00:00:00 10.6 0 Calma -- -- 0 986.6 1 94
2019-12-04 23:00:00 10.9 0 Calma 10 Sur 0 986.1 0.8 91
2019-12-04 22:00:00 10.9 0 Calma 4 Este 0 985.9 1.3 87
2019-12-04 21:00:00 11.2 0 Calma 6 Sudeste 0 985.6 1.5 86
2019-12-04 20:00:00 11.5 0 Calma 6 Sudoeste 0 985.3 1.4 82
2019-12-04 19:00:00 11.8 5 Sudoeste 9 Sudoeste 0 984.6 1.1 77
2019-12-04 18:00:00 12.3 7 Sudoeste 14 Oeste 0 984.1 0.7 67
2019-12-04 17:00:00 14 5 Oeste 17 Oeste 0 983.9 0 56
2019-12-04 16:00:00 13.4 13 Oeste 18 Oeste 0 983.5 -1.2 57
2019-12-04 15:00:00 13.9 13 Oeste 19 Oeste 0 983.4 -2 58
2019-12-04 14:00:00 14.1 5 Oeste 12 Sudoeste 0 983.9 -2.2 57
2019-12-04 13:00:00 13.7 0 Calma -- -- 0 984.7 -1.2 53
2019-12-04 12:00:00 11.2 0 Calma 4 Este 0 985.4 -0.6 71
2019-12-04 11:00:00 9.7 0 Calma 3 Sudeste 0 986.1 0.5 80
2019-12-04 10:00:00 6 0 Calma 9 Sudeste 0 985.9 0.3 99
2019-12-04 09:00:00 4.9 0 Calma 6 Sudeste 0 986 0.7 99
2019-12-04 08:00:00 4.7 0 Calma -- -- 0 985.6 0 99
2019-12-04 07:00:00 4.4 0 Calma 3 Este 0 985.6 -0.3 99
2019-12-04 06:00:00 4.4 0 Calma 6 Este 0 985.3 -1.1 99
2019-12-04 05:00:00 5.3 0 Calma -- -- 0 985.6 -1.1 99
2019-12-04 04:00:00 5.7 0 Calma 4 Sur 0 985.9 -1.2 98
2019-12-04 03:00:00 6.7 0 Calma 4 Sudoeste 0 986.4 -0.9 96
2019-12-04 02:00:00 7.6 0 Calma 3 Este 0 986.7 -0.5 92
2019-12-04 01:00:00 7.4 0 Calma 5 Este 0 987.1 -0.1 93
2019-12-04 00:00:00 8.5 0 Calma 8 Sudeste 0 987.3 0.3 86
2019-12-03 23:00:00 10.2 7 Este 11 Este 0 987.2 0.6 78
2019-12-03 22:00:00 10.4 3 Este 8 Sudeste 0 987.2 0.9 81
2019-12-03 21:00:00 10.5 4 Este 10 Este 0 987 1.2 80
2019-12-03 20:00:00 10.6 3 Sudeste 10 Este 0 986.6 1.3 75
2019-12-03 19:00:00 12.3 4 Este 17 Este 0 986.3 1.3 65
2019-12-03 18:00:00 14 6 Este 18 Este 0 985.8 0.8 59
2019-12-03 17:00:00 14.9 5 Este 15 Este 0 985.3 -0.1 57
2019-12-03 16:00:00 15.9 6 Este 12 Este 0 985 -0.8 55
2019-12-03 15:00:00 16.4 4 Este 13 Este 0 985 -1.9 52
2019-12-03 14:00:00 15.6 6 Este 22 Este 0 985.4 -2.1 54
2019-12-03 13:00:00 15.6 17 Este 28 Este 0 985.8 -1.7 52
2019-12-03 12:00:00 15.1 7 Este 21 Este 0 986.9 -0.5 55
2019-12-03 11:00:00 12.8 4 Sudeste 10 Sudeste 0 987.5 0.6 70
2019-12-03 10:00:00 9.5 0 Calma -- -- 0 987.5 0.9 91
2019-12-03 09:00:00 9.1 0 Calma 4 Sudeste 0 987.4 0.8 88
2019-12-03 08:00:00 9.3 0 Calma 9 Este 0 986.9 0 88
2019-12-03 07:00:00 8.4 0 Calma 4 Sudeste 0 986.6 -0.7 95
2019-12-03 06:00:00 9.7 0 Calma 2 Este 0 986.6 -1.2 91
2019-12-03 05:00:00 10 0 Calma 3 Sudeste 0 986.9 -1.2 90
2019-12-03 04:00:00 10.8 2 Este 10 Este 0 987.3 -1.1 85
2019-12-03 03:00:00 10.8 0 Calma 2 Este 0 987.8 -0.9 88
2019-12-03 02:00:00 10.7 0 Calma 6 Este 0 988.1 -0.6 87
2019-12-03 01:00:00 11.7 2 Sudeste 7 Sur 0 988.4 -0.2 84
2019-12-03 00:00:00 11 0 Calma 4 Este 0 988.7 0.5 86
2019-12-02 23:00:00 11.7 0 Calma 10 Nordeste 0 988.7 1.4 77
2019-12-02 22:00:00 12 2 Sudeste 9 Este 0 988.6 2.1 77
2019-12-02 21:00:00 12.3 4 Este 14 Este 0 988.2 2 75
2019-12-02 20:00:00 12.6 10 Este 19 Este 0 987.3 1.7 70
2019-12-02 19:00:00 12.6 6 Este 17 Este 0 986.5 1.4 71
2019-12-02 18:00:00 14.4 7 Este 25 Sudeste 0 986.2 1.2 58
2019-12-02 17:00:00 15 6 Este 31 Este 0 985.6 0.1 53
2019-12-02 16:00:00 16.9 7 Este 23 Nordeste 0 985.1 -1.1 47
2019-12-02 15:00:00 16.2 4 Este 23 Este 0 985 -1.8 51
2019-12-02 14:00:00 16.6 7 Este 27 Sudeste 0.1 985.5 -1.4 50
2019-12-02 13:00:00 14.9 11 Este 31 Este 0 986.2 -0.3 53
2019-12-02 12:00:00 14.2 12 Este 28 Sudeste 0 986.8 0.7 59
2019-12-02 11:00:00 12 8 Sudeste 15 Este 0 986.9 1.3 83
2019-12-02 10:00:00 9 5 Sudeste 10 Este 0 986.5 1.3 99
2019-12-02 09:00:00 8.2 0 Calma 8 Este 0 986.1 0.9 99
2019-12-02 08:00:00 8.6 0 Calma 8 Sudeste 0 985.6 0.4 99
2019-12-02 07:00:00 9 0 Calma 4 Sudeste 0 985.2 0 99
2019-12-02 06:00:00 9.3 0 Calma -- -- 0.3 985.2 -0.1 99
2019-12-02 05:00:00 9.4 0 Calma 5 Sur 0.9 985.2 -0.4 99
2019-12-02 04:00:00 9.3 6 Sudoeste 10 Sudoeste 2.5 985.2 -0.6 99
2019-12-02 03:00:00 9.2 0 Calma 6 Sudoeste 3.1 985.3 -0.5 99
2019-12-02 02:00:00 9.4 0 Calma 13 Sudoeste 4.5 985.6 -0.4 99
2019-12-02 01:00:00 9.9 6 Sudoeste 12 Sudoeste 0.4 985.8 -0.2 99
2019-12-02 00:00:00 10 6 Este 14 Este 0 985.8 -0.5 99
2019-12-01 23:00:00 10.2 5 Sudeste 12 Este 0 986 -0.4 99
2019-12-01 22:00:00 10.5 2 Sudeste 9 Este 0 986 -0.3 99
2019-12-01 21:00:00 10.5 3 Este 7 Este 0 986.3 -0.1 99
2019-12-01 20:00:00 10.5 0 Calma 7 Este 0 986.4 0.3 98
2019-12-01 19:00:00 10.4 0 Calma 5 Norte 0 986.3 -0.1 98
2019-12-01 18:00:00 10.7 5 Noroeste 19 Noroeste 5.6 986.4 -0.5 97
2019-12-01 17:00:00 11.8 5 Noroeste 8 Norte 1.4 986.1 -1.8 97
2019-12-01 16:00:00 12.8 5 Oeste 9 Noroeste 0.1 986.4 -2.6 90
2019-12-01 15:00:00 12.5 0 Calma 9 Noroeste 0.9 986.9 -3.2 92
2019-12-01 14:00:00 12.8 0 Calma 9 Noroeste 0 987.9 -2.7 84
2019-12-01 13:00:00 12.9 0 Calma 11 Noroeste 0 989 -2.1 84
2019-12-01 12:00:00 12.2 0 Calma 9 Norte 0 990.1 -0.4 89
2019-12-01 11:00:00 11.4 2 Este 6 Este 0 990.6 0 98
2019-12-01 10:00:00 10.3 0 Calma 4 Oeste 0 991.1 0.5 99
2019-12-01 09:00:00 10.2 0 Calma 8 Noroeste 0 990.5 -0.1 99
2019-12-01 08:00:00 9.7 5 Noroeste 9 Sudoeste 0 990.6 0.1 99
2019-12-01 07:00:00 10.6 8 Oeste 15 Oeste 0 990.6 -0.1 99
2019-12-01 06:00:00 11.5 10 Noroeste 24 Sudoeste 0 990.6 -0.5 99
2019-12-01 05:00:00 11.8 5 Oeste 14 Sudoeste 0 990.5 -1 99
2019-12-01 04:00:00 12.5 8 Sudoeste 19 Oeste 0.1 990.7 -1.5 97
2019-12-01 03:00:00 12.8 13 Oeste 20 Oeste 1.7 991.1 -1.9 99
2019-12-01 02:00:00 13.1 4 Noroeste 22 Oeste 0 991.5 -1.9 95
2019-12-01 01:00:00 14.3 5 Sudoeste 13 Sudoeste 0 992.2 -1.7 85
2019-12-01 00:00:00 12.9 0 Calma 5 Oeste 0 993 -1.1 94
2019-11-30 23:00:00 13.1 0 Calma 5 Norte 0 993.4 -0.8 93
2019-11-30 22:00:00 12.3 0 Calma 13 Oeste 0 993.9 0 92
2019-11-30 21:00:00 13.9 10 Oeste 17 Sudoeste 0 994.1 0.5 83
2019-11-30 20:00:00 14.3 8 Oeste 14 Oeste 0 994.2 1 84
2019-11-30 19:00:00 14.3 6 Oeste 17 Oeste 0 993.9 0.1 80
2019-11-30 18:00:00 15.7 10 Oeste 19 Oeste 0 993.6 -0.8 69
2019-11-30 17:00:00 18 13 Sudoeste 18 Oeste 0 993.2 -2 58
2019-11-30 16:00:00 18.6 11 Oeste 18 Oeste 0 993.8 -2.5 53
2019-11-30 15:00:00 18.9 8 Oeste 13 Oeste 0 994.4 -2.9 51
2019-11-30 14:00:00 18.7 0 Calma 5 Sudeste 0 995.2 -2.9 50
2019-11-30 13:00:00 17.2 0 Calma 5 Sur 0 996.3 -1.8 58
2019-11-30 12:00:00 14.5 4 Este 13 Este 0 997.3 -0.9 68
2019-11-30 11:00:00 12.5 0 Calma 11 Este 0 998.1 0 97
2019-11-30 10:00:00 9.3 7 Este 11 Este 0 998.1 0.1 99
2019-11-30 09:00:00 7.2 0 Calma -- -- 0 998.2 0.7 99
2019-11-30 08:00:00 6.6 0 Calma 3 Este 0 998.1 0.4 99
2019-11-30 07:00:00 7.4 0 Calma 3 Este 0 998 -0.1 99
2019-11-30 06:00:00 7.7 2 Sudeste 6 Sudeste 0 997.5 -0.6 99
2019-11-30 05:00:00 8.1 0 Calma 6 Sur 0 997.7 -0.4 99
2019-11-30 04:00:00 8.3 0 Calma -- -- 0 998.1 0 99
2019-11-30 03:00:00 7.7 0 Calma -- -- 0 998.1 0.2 99
2019-11-30 02:00:00 8.1 0 Calma -- -- 0 998.1 0.1 99
2019-11-30 01:00:00 8.4 0 Calma -- -- 0 998.1 0.1 99
2019-11-30 00:00:00 9.3 0 Calma 0 Calma 0 997.9 -0.1 99
2019-11-29 23:00:00 10 0 Calma 0 Calma 0 998 0.2 99
2019-11-29 22:00:00 10.4 0 Calma -- -- 0 998 0.2 98
2019-11-29 21:00:00 10.9 0 Calma -- -- 0 998 0.3 98
2019-11-29 20:00:00 11.4 0 Calma -- -- 0 997.8 0.4 95
2019-11-29 19:00:00 12.8 0 Calma 5 Sudeste 0 997.8 0.4 89
2019-11-29 18:00:00 14.3 3 Sudeste 9 Norte 0 997.7 0.2 77
2019-11-29 17:00:00 17 2 Nordeste 10 Norte 0 997.4 -0.5 59
2019-11-29 16:00:00 18.7 0 Calma -- -- 0 997.4 -1.2 52
2019-11-29 15:00:00 17.7 0 Calma -- -- 0 997.5 -1.7 56
2019-11-29 14:00:00 17.6 0 Calma -- -- 0 997.9 -1.1 60
2019-11-29 13:00:00 14.9 0 Calma 3 Sudeste 0 998.6 0.1 69
2019-11-29 12:00:00 14 0 Calma 8 Sudeste 0 999.2 1.2 74
2019-11-29 11:00:00 12.7 4 Sudeste 10 Este 0 999 1.2 80
2019-11-29 10:00:00 11.7 6 Este 9 Sudeste 0 998.5 1 90
2019-11-29 09:00:00 11 0 Calma 5 Sudeste 0 998 0.7 99
2019-11-29 08:00:00 10.3 0 Calma 3 Sur 0 997.8 0.9 99
2019-11-29 07:00:00 9.9 0 Calma 3 Norte 0 997.5 0.8 99
2019-11-29 06:00:00 10.1 0 Calma 4 Sur 0 997.3 0.8 99
2019-11-29 05:00:00 9.8 0 Calma 3 Sudeste 0 996.9 0.6 99
2019-11-29 04:00:00 9.1 0 Calma 2 Sudeste 0 996.7 0.3 99
2019-11-29 03:00:00 10.3 0 Calma 2 Oeste 0 996.5 -0.1 99
2019-11-29 02:00:00 10.2 0 Calma 4 Este 0 996.3 -0.5 99
2019-11-29 01:00:00 11.1 0 Calma 2 Este 0 996.4 0 97
2019-11-29 00:00:00 11.4 0 Calma 7 Sudeste 0 996.6 0.6 94
2019-11-28 23:00:00 12 0 Calma 0 Calma 0 996.8 1.3 96
2019-11-28 22:00:00 12.2 0 Calma 3 Este 0 996.4 1.2 96
2019-11-28 21:00:00 12.7 0 Calma -- -- 0 996 1.2 94
2019-11-28 20:00:00 12.8 0 Calma 5 Sudoeste 0 995.5 0.6 91
2019-11-28 19:00:00 13.2 0 Calma 6 Sur 0 995.2 0.4 88
2019-11-28 18:00:00 14.1 0 Calma 7 Oeste 0 994.8 -0.4 77
2019-11-28 17:00:00 15.3 2 Oeste 12 Sudoeste 0 994.9 -0.5 64
2019-11-28 16:00:00 15.2 7 Oeste 11 Oeste 0 994.8 -1.2 71
2019-11-28 15:00:00 15 6 Oeste 9 Oeste 0 995.2 -1.5 73
2019-11-28 14:00:00 14.8 2 Noroeste 11 Noroeste 0 995.4 -1.4 75
2019-11-28 13:00:00 14 3 Oeste 9 Oeste 0 996 -0.6 78
2019-11-28 12:00:00 13.6 0 Calma 0 Calma 0 996.7 0.9 80
2019-11-28 11:00:00 13.2 0 Calma 2 Este 0 996.8 1.6 81
2019-11-28 10:00:00 12.2 0 Calma 3 Sur 0 996.6 2.1 88
2019-11-28 09:00:00 11.4 0 Calma 9 Noroeste 0 995.8 1.8 95
2019-11-28 08:00:00 11.5 7 Noroeste 11 Noroeste 0 995.2 1.3 94
2019-11-28 07:00:00 11.8 6 Oeste 10 Oeste 0 994.5 0.8 98
2019-11-28 06:00:00 11.9 5 Oeste 10 Oeste 0 994 0.3 99
2019-11-28 05:00:00 11.9 3 Oeste 5 Oeste 0 993.9 0.2 99
2019-11-28 04:00:00 11.6 0 Calma 4 Norte 0 993.7 0.1 99
2019-11-28 03:00:00 12.7 0 Calma 9 Oeste 0 993.7 0.3 99
2019-11-28 02:00:00 12.8 6 Oeste 13 Oeste 0 993.7 0.2 99
2019-11-28 01:00:00 12 2 Oeste 6 Oeste 0 993.6 0.4 99
2019-11-28 00:00:00 11.3 0 Calma 2 Este 0 993.4 0.6 99
2019-11-27 23:00:00 11.5 0 Calma 3 Sudeste 0 993.5 1.8 99
2019-11-27 22:00:00 12.4 0 Calma 5 Sudoeste 0 993.2 1.7 98
2019-11-27 21:00:00 11.3 0 Calma 9 Noroeste 0 992.8 2 98
2019-11-27 20:00:00 11.8 0 Calma 5 Oeste 0 991.7 1 97
2019-11-27 19:00:00 13.2 5 Oeste 16 Sudoeste 0 991.5 1.2 90
2019-11-27 18:00:00 15.1 10 Sudoeste 21 Oeste 0 990.8 0.2 73
2019-11-27 17:00:00 16.9 13 Oeste 24 Oeste 0 990.7 -0.4 63
2019-11-27 16:00:00 17.7 14 Oeste 22 Oeste 0 990.3 -1.4 61
2019-11-27 15:00:00 16.7 11 Noroeste 24 Oeste 0 990.6 -1.8 65
2019-11-27 14:00:00 17.4 16 Oeste 28 Sudoeste 0 991.1 -1.3 58
2019-11-27 06:00:00 14.6 13 Sudoeste 28 Oeste 0 989.7 0.7 93
2019-11-27 05:00:00 14.7 15 Oeste 26 Sudoeste 0 989.3 -0.1 94
2019-11-27 04:00:00 14.8 12 Oeste 30 Sudoeste 0 989.4 -0.4 94
2019-11-27 03:00:00 15 15 Sudoeste 31 Sudoeste 0.1 989 -0.9 95
2019-11-27 02:00:00 14.3 9 Oeste 24 Sudoeste 0.1 989.4 -0.7 97
2019-11-27 01:00:00 14.8 14 Oeste 28 Sudoeste 0 989.8 -0.3 95
2019-11-27 00:00:00 15 13 Sudoeste 27 Oeste 0.1 989.9 -0.1 94
2019-11-26 23:00:00 15.2 12 Oeste 24 Sudoeste 0.1 990.1 -0.3 91
2019-11-26 22:00:00 15.8 10 Sudoeste 20 Sudoeste 0 990.1 -0.2 87
2019-11-26 21:00:00 14.6 2 Oeste 9 Oeste 0 990 -0.1 98
2019-11-26 20:00:00 14.6 6 Oeste 9 Oeste 0 990.4 0.1 98
2019-11-26 19:00:00 14.8 6 Oeste 12 Oeste 0.2 990.3 0.1 97
2019-11-26 18:00:00 15.1 4 Oeste 11 Oeste 0 990.1 -0.4 97
2019-11-26 17:00:00 16 5 Noroeste 9 Noroeste 0 990.3 -1.3 85
2019-11-26 16:00:00 16.5 5 Noroeste 8 Noroeste 0 990.2 -2.1 79
2019-11-26 15:00:00 17.7 2 Oeste 9 Oeste 0 990.5 -2.7 73
2019-11-26 14:00:00 16.1 5 Oeste 14 Oeste 0 991.6 -2 80
2019-11-26 13:00:00 15.7 6 Noroeste 11 Noroeste 0 992.3 -1.2 85
2019-11-26 12:00:00 15.6 7 Oeste 13 Oeste 0 993.2 -0.1 83
2019-11-26 11:00:00 15.2 5 Oeste 11 Oeste 0 993.6 0.6 96
2019-11-26 10:00:00 14 4 Sudoeste 8 Sudoeste 0 993.5 1.1 99
2019-11-26 09:00:00 13 0 Calma 6 Noroeste 0 993.3 0.6 99
2019-11-26 08:00:00 12.7 0 Calma 5 Sudeste 0 993 0.2 99
2019-11-26 07:00:00 13.1 2 Sudeste 4 Este 0 992.4 -0.6 99
2019-11-26 06:00:00 13.3 0 Calma 3 Oeste 0 992.7 -0.4 99
2019-11-26 05:00:00 13.3 0 Calma 4 Norte 0 992.8 -0.6 99
2019-11-26 04:00:00 13.3 0 Calma 4 Este 0.1 993 -1 99
2019-11-26 03:00:00 13.4 0 Calma -- -- 0 993.1 -1.2 99
2019-11-26 02:00:00 13.3 0 Calma -- -- 0 993.4 -0.7 99
2019-11-26 01:00:00 13.4 0 Calma -- -- 0.1 994 -0.2 99
2019-11-26 00:00:00 13.3 0 Calma 4 Este 0 994.3 0.5 99
2019-11-25 23:00:00 13.3 3 Este 5 Este 0 994.1 0.4 99
2019-11-25 22:00:00 13.4 0 Calma 6 Este 0 994.2 0.8 99
2019-11-25 21:00:00 13.5 0 Calma 2 Sudeste 0 993.8 0.8 99
2019-11-25 20:00:00 13.3 0 Calma 3 Este 0 993.7 0.8 99
2019-11-25 19:00:00 13.3 0 Calma 4 Noroeste 0 993.4 0.5 99
2019-11-25 18:00:00 13.4 0 Calma 5 Noroeste 0 993 -0.1 99
2019-11-25 17:00:00 13.3 2 Oeste 9 Oeste 0 992.9 -0.5 99
2019-11-25 16:00:00 13 7 Noroeste 11 Noroeste 0.2 992.9 -1.2 99
2019-11-25 15:00:00 12.9 5 Oeste 11 Noroeste 0 993.1 -1.6 99
2019-11-25 14:00:00 12.8 6 Noroeste 12 Noroeste 0.2 993.4 -1.5 99
2019-11-25 13:00:00 12.5 7 Noroeste 10 Noroeste 0.2 994.1 -0.5 99
2019-11-25 12:00:00 11.7 5 Noroeste 6 Noroeste 0.5 994.7 0.4 99
2019-11-25 11:00:00 11.3 0 Calma 0 Calma 1.2 994.9 0.8 99
2019-11-25 10:00:00 11 0 Calma 5 Este 1.5 994.6 0.7 99
2019-11-25 09:00:00 10.6 0 Calma 4 Este 0.8 994.3 0.4 99
2019-11-25 08:00:00 10.6 0 Calma -- -- 0.3 994.1 0.1 99
2019-11-25 07:00:00 10.5 0 Calma 8 Este 0 993.9 -0.1 99
2019-11-25 06:00:00 10.4 0 Calma 3 Oeste 0.2 993.9 -0.2 99
2019-11-25 05:00:00 10.5 0 Calma 3 Oeste 0.2 994 -0.4 98
2019-11-25 04:00:00 10.8 0 Calma 2 Oeste 0 994 -0.8 95
2019-11-25 03:00:00 10.7 0 Calma 2 Este 0 994.1 -0.7 95
2019-11-25 02:00:00 10.8 0 Calma 8 Oeste 0 994.4 -0.4 94
2019-11-25 01:00:00 10.5 0 Calma 0 Calma 0 994.8 0 96
2019-11-25 00:00:00 10.6 0 Calma 3 Sudeste 0 994.8 0.3 94
2019-11-24 23:00:00 10.8 0 Calma -- -- 0 994.8 0.8 91
2019-11-24 22:00:00 10.9 0 Calma 8 Oeste 0 994.8 1.1 90
2019-11-24 21:00:00 10.9 4 Oeste 9 Sur 0 994.5 1.4 87
2019-11-24 20:00:00 11.8 6 Sudoeste 9 Sudoeste 0 994 1.2 80
2019-11-24 19:00:00 12 6 Sudoeste 9 Sudoeste 0 993.7 1.1 79
2019-11-24 18:00:00 12 5 Sudoeste 17 Oeste 0 993.1 0.5 73
2019-11-24 17:00:00 13.6 9 Oeste 18 Oeste 0 992.8 -0.4 63
2019-11-24 16:00:00 14.3 8 Oeste 14 Oeste 0 992.6 -1.1 56
2019-11-24 15:00:00 13.5 7 Sudoeste 19 Sudoeste 0 992.6 -2.1 59
2019-11-24 14:00:00 13.4 7 Oeste 17 Sudoeste 0 993.2 -1.6 58
2019-11-24 13:00:00 11.9 8 Sudoeste 17 Oeste 0 993.7 -0.8 69
2019-11-24 12:00:00 11 11 Oeste 17 Noroeste 0 994.7 0.4 77
2019-11-24 11:00:00 8.9 3 Noroeste 8 Noroeste 0 994.8 1.3 89
2019-11-24 10:00:00 6.9 0 Calma 4 Este 0 994.5 2.2 99
2019-11-24 09:00:00 5.1 0 Calma 2 Oeste 0 994.3 2.5 99
2019-11-24 08:00:00 3.7 0 Calma 6 Este 0 993.5 2.7 99
2019-11-24 07:00:00 3.8 0 Calma 8 Oeste 0 992.3 1.3 99
2019-11-24 06:00:00 4.1 3 Oeste 8 Oeste 0 991.8 1 99
2019-11-24 05:00:00 4.4 6 Oeste 10 Oeste 0 990.8 -0.1 99
2019-11-24 04:00:00 4.1 0 Calma 10 Oeste 0 991 0.5 99
2019-11-24 03:00:00 4.3 4 Oeste 7 Oeste 0 990.8 0.8 99
2019-11-24 02:00:00 5.8 0 Calma 6 Noroeste 0 990.9 1.2 98
2019-11-24 01:00:00 6.7 5 Oeste 15 Noroeste 0 990.5 1.3 94
2019-11-24 00:00:00 8.3 10 Oeste 22 Oeste 0 990 1.2 84
2019-11-23 23:00:00 10.1 15 Sudoeste 26 Oeste 0 989.7 1.5 74
2019-11-23 22:00:00 10.3 14 Oeste 23 Sudoeste 0 989.2 2 73
2019-11-23 21:00:00 10.9 14 Sudoeste 20 Sudoeste 0 988.8 2.7 67
2019-11-23 20:00:00 10.9 12 Oeste 17 Oeste 0 988.2 3.1 66
2019-11-23 19:00:00 10.8 12 Oeste 22 Oeste 0 987.2 3 66
2019-11-23 18:00:00 13.1 14 Oeste 28 Oeste 0 986.1 2.5 53
2019-11-23 17:00:00 14.4 18 Noroeste 36 Oeste 0 985.1 1.5 49
2019-11-23 16:00:00 15.1 23 Noroeste 35 Oeste 0 984.2 0.5 46
2019-11-23 15:00:00 15.2 25 Oeste 39 Oeste 0 983.6 0.4 49
2019-11-23 14:00:00 14.2 18 Oeste 33 Oeste 0 983.6 0.7 54
2019-11-23 13:00:00 14.4 22 Oeste 36 Noroeste 0 983.7 1.5 55
2019-11-23 12:00:00 12.9 21 Oeste 40 Oeste 0 983.2 2.6 70
2019-11-23 11:00:00 12.8 23 Oeste 39 Oeste 0 982.9 3.5 66
2019-11-23 10:00:00 11.6 16 Oeste 33 Oeste 0 982.2 3.8 74
2019-11-23 09:00:00 10.5 16 Oeste 30 Oeste 0 980.6 2.8 79
2019-11-23 08:00:00 10.6 18 Oeste 37 Sudoeste 0 979.4 2.3 79
2019-11-23 07:00:00 11 16 Oeste 31 Oeste 0 978.4 1.9 80
2019-11-23 06:00:00 10.7 17 Sudoeste 39 Oeste 0 977.8 2.4 89
2019-11-23 05:00:00 11 27 Oeste 49 Oeste 0.2 977.1 2 82
2019-11-23 04:00:00 12 28 Oeste 55 Oeste 0.2 976.5 0.5 89
2019-11-23 03:00:00 12.5 25 Oeste 48 Sudoeste 0 975.4 -0.3 84
2019-11-23 02:00:00 12.7 22 Oeste 41 Sudoeste 0 975.1 -0.7 85
2019-11-23 01:00:00 13 17 Oeste 40 Sudoeste 0 976 0.3 85
2019-11-23 00:00:00 13.6 24 Oeste 39 Sudoeste 0 975.7 0.7 77
2019-11-22 23:00:00 13.7 18 Sudoeste 33 Sudoeste 0 975.8 2.1 80
2019-11-22 22:00:00 13.8 18 Sudoeste 31 Sudoeste 0 975.7 3.4 83
2019-11-22 21:00:00 14.2 17 Oeste 27 Oeste 0 975 3 89
2019-11-22 20:00:00 15.4 21 Oeste 35 Oeste 0 973.7 1.7 96
2019-11-22 19:00:00 16.1 21 Oeste 73 Oeste 0.2 972.3 -0.7 92
2019-11-22 18:00:00 15.9 23 Oeste 44 Sudoeste 4.2 972 -0.7 94
2019-11-22 17:00:00 14.6 8 Sudoeste 43 Noroeste 9.9 972 -2.8 95
2019-11-22 16:00:00 14.8 19 Sudoeste 47 Sudoeste 2.7 973 -3.4 93
2019-11-22 15:00:00 14.6 14 Sudoeste 36 Sudoeste 4.8 972.7 -5.3 90
2019-11-22 14:00:00 15.1 13 Sudoeste 30 Sudoeste 2.3 974.8 -4.5 87
2019-11-22 13:00:00 14.9 8 Oeste 19 Sudoeste 2.7 976.4 -3.8 99
2019-11-22 12:00:00 13 3 Sudeste 6 Norte 0.7 978 -2.7 99
2019-11-22 11:00:00 12.4 3 Este 9 Este 1.9 979.3 -1.9 99
2019-11-22 10:00:00 12.1 0 Calma 5 Este 0 980.2 -1.2 99
2019-11-22 09:00:00 11.5 3 Sudeste 7 Este 0 980.7 -1 99
2019-11-22 08:00:00 11.4 0 Calma 5 Este 0.4 981.2 -1.2 99
2019-11-22 07:00:00 11.2 3 Este 5 Este 0.2 981.4 -1.3 99
2019-11-22 06:00:00 11.2 0 Calma 4 Sudeste 0 981.7 -1.1 99
2019-11-22 05:00:00 11.1 0 Calma 4 Sudeste 0.5 982.4 -0.9 99
2019-11-22 04:00:00 11.1 0 Calma 4 Sudoeste 0 982.7 -1 99
2019-11-22 03:00:00 11.2 0 Calma 4 Nordeste 0.6 982.8 -1.4 99
2019-11-22 02:00:00 11 0 Calma 5 Este 0.1 983.3 -1.3 99
2019-11-22 01:00:00 11 3 Este 6 Este 0.1 983.7 -0.7 99
2019-11-22 00:00:00 11.1 0 Calma 3 Este 0.3 984.2 -0.5 99
2019-11-21 23:00:00 11 0 Calma 3 Este 0 984.6 0 99
2019-11-21 22:00:00 11.1 3 Este 5 Este 0.1 984.4 0 99
2019-11-21 21:00:00 11.4 0 Calma 3 Este 0 984.7 0.6 99
2019-11-21 20:00:00 11.4 2 Este 7 Este 0 984.6 0.3 99
2019-11-21 19:00:00 11.4 0 Calma 8 Este 0 984.4 0.2 99
2019-11-21 18:00:00 11.5 0 Calma 8 Sudeste 1.5 984.1 -0.4 99
2019-11-21 17:00:00 11.7 2 Sudeste 6 Sudeste 0.7 984.3 -0.2 99
2019-11-21 16:00:00 11.5 0 Calma 3 Este 1 984.2 -1.4 99
2019-11-21 15:00:00 11.6 0 Calma 14 Noroeste 1.2 984.5 -- 99
2019-11-21 14:00:00 11.4 4 Este 12 Este 0.3 984.5 -- 99
2019-11-21 13:00:00 11.1 2 Este -- -- -- 985.6 -- 99
2019-11-21 12:00:00 -- -- -- -- -- -- -- -- --
2019-11-21 11:00:00 -- -- -- -- -- -- -- -- --
2019-11-21 10:00:00 -- -- -- -- -- -- -- -- --
2019-11-21 09:00:00 -- -- -- -- -- -- -- -- --
2019-11-21 08:00:00 -- -- -- -- -- -- -- -- --
2019-11-21 07:00:00 -- -- -- -- -- -- -- -- --
2019-11-21 06:00:00 -- -- -- -- -- -- -- -- --
2019-11-21 05:00:00 -- -- -- -- -- -- -- -- --
2019-11-21 04:00:00 -- -- -- -- -- -- -- -- --
2019-11-21 03:00:00 -- -- -- -- -- -- -- -- --
2019-11-21 02:00:00 -- -- -- -- -- -- -- -- --
2019-11-21 01:00:00 -- -- -- -- -- -- -- -- --
2019-11-21 00:00:00 -- -- -- -- -- -- -- -- --
2019-11-20 23:00:00 -- -- -- -- -- -- -- -- --
2019-11-20 22:00:00 -- -- -- -- -- -- -- -- --
2019-11-20 21:00:00 -- -- -- -- -- -- -- -- --
2019-11-20 20:00:00 -- -- -- -- -- -- -- -- --
2019-11-20 19:00:00 -- -- -- -- -- -- -- -- --
2019-11-20 18:00:00 -- -- -- -- -- -- -- -- --
2019-11-20 17:00:00 -- -- -- -- -- -- -- -- --
2019-11-20 16:00:00 -- -- -- -- -- -- -- -- --
2019-11-20 15:00:00 -- -- -- -- -- -- -- -- --
2019-11-20 14:00:00 -- -- -- -- -- -- -- -- --
2019-11-20 13:00:00 -- -- -- -- -- -- -- -- --
2019-11-20 12:00:00 -- -- -- -- -- -- -- -- --
2019-11-20 11:00:00 -- -- -- -- -- -- -- -- --
2019-11-20 10:00:00 -- -- -- -- -- -- -- -- --
2019-11-20 09:00:00 -- -- -- -- -- -- -- -- --
2019-11-20 08:00:00 -- -- -- -- -- -- -- -- --
2019-11-20 07:00:00 -- -- -- -- -- -- -- -- --
2019-11-20 06:00:00 -- -- -- -- -- -- -- -- --
2019-11-20 05:00:00 -- -- -- -- -- -- -- -- --
2019-11-20 04:00:00 -- -- -- -- -- -- -- -- --
2019-11-20 03:00:00 -- -- -- -- -- -- -- -- --
2019-11-20 02:00:00 -- -- -- -- -- -- -- -- --
2019-11-20 01:00:00 -- -- -- -- -- -- -- -- --
2019-11-20 00:00:00 -- -- -- -- -- -- -- -- --
2019-11-19 23:00:00 -- -- -- -- -- -- -- -- --
2019-11-19 22:00:00 -- -- -- -- -- -- -- -- --
2019-11-19 21:00:00 -- -- -- -- -- -- -- -- --
2019-11-19 20:00:00 -- -- -- -- -- -- -- -- --
2019-11-19 19:00:00 -- -- -- -- -- -- -- -- --
2019-11-19 18:00:00 -- -- -- -- -- -- -- -- --
2019-11-19 17:00:00 -- -- -- -- -- -- -- -- --
2019-11-19 16:00:00 -- -- -- -- -- -- -- -- --
2019-11-19 15:00:00 -- -- -- -- -- -- -- -- --
2019-11-19 14:00:00 -- -- -- -- -- -- -- -- --
2019-11-19 13:00:00 -- -- -- -- -- -- -- -- --
2019-11-19 12:00:00 -- -- -- -- -- -- -- -- --
2019-11-19 11:00:00 -- -- -- -- -- -- -- -- --
2019-11-19 10:00:00 -- -- -- -- -- -- -- -- --
2019-11-19 09:00:00 -- -- -- -- -- -- -- -- --
2019-11-19 08:00:00 -- -- -- -- -- -- -- -- --
2019-11-19 07:00:00 -- -- -- -- -- -- -- -- --
2019-11-19 06:00:00 -- -- -- -- -- -- -- -- --
2019-11-19 05:00:00 -- -- -- -- -- -- -- -- --
2019-11-19 04:00:00 -- -- -- -- -- -- -- -- --
2019-11-19 03:00:00 -- -- -- -- -- -- -- -- --
2019-11-19 02:00:00 -- -- -- -- -- -- -- -- --
2019-11-19 01:00:00 -- -- -- -- -- -- -- -- --
2019-11-19 00:00:00 -- -- -- -- -- -- -- -- --
2019-11-18 23:00:00 -- -- -- -- -- -- -- -- --
2019-11-18 22:00:00 -- -- -- -- -- -- -- -- --
2019-11-18 21:00:00 -- -- -- -- -- -- -- -- --
2019-11-18 20:00:00 -- -- -- -- -- -- -- -- --
2019-11-18 19:00:00 -- -- -- -- -- -- -- -- --
2019-11-18 18:00:00 -- -- -- -- -- -- -- -- --
2019-11-18 17:00:00 -- -- -- -- -- -- -- -- --
2019-11-18 16:00:00 -- -- -- -- -- -- -- -- --
2019-11-18 15:00:00 -- -- -- -- -- -- -- -- --
2019-11-18 14:00:00 -- -- -- -- -- -- -- -- --
2019-11-18 13:00:00 -- -- -- -- -- -- -- -- --
2019-11-18 12:00:00 -- -- -- -- -- -- -- -- --
2019-11-18 11:00:00 -- -- -- -- -- -- -- -- --
2019-11-18 10:00:00 -- -- -- -- -- -- -- -- --
2019-11-18 09:00:00 -- -- -- -- -- -- -- -- --
2019-11-18 08:00:00 -- -- -- -- -- -- -- -- --
2019-11-18 07:00:00 -- -- -- -- -- -- -- -- --
2019-11-18 06:00:00 -- -- -- -- -- -- -- -- --
2019-11-18 05:00:00 -- -- -- -- -- -- -- -- --
2019-11-18 04:00:00 -- -- -- -- -- -- -- -- --
2019-11-18 03:00:00 -- -- -- -- -- -- -- -- --
2019-11-18 02:00:00 -- -- -- -- -- -- -- -- --
2019-11-18 01:00:00 -- -- -- -- -- -- -- -- --
2019-11-18 00:00:00 -- -- -- -- -- -- -- -- --
2019-11-17 23:00:00 7.4 0 Calma 4 Noroeste 1.7 988.4 -1.7 99
2019-11-17 22:00:00 7.3 0 Calma 3 Sudeste 1.1 989.1 -2 99
2019-11-17 21:00:00 7.2 0 Calma 5 Noroeste 4 989.5 -2.4 99
2019-11-17 20:00:00 7.2 0 Calma 2 Sur 1.6 990.1 -2.1 99
2019-11-17 19:00:00 7.2 0 Calma 3 Sur 0.2 991.1 -1.6 99
2019-11-17 18:00:00 7.1 0 Calma 5 Sudeste 0.1 991.9 -1.3 99
2019-11-17 17:00:00 7.2 0 Calma 3 Oeste 0.2 992.2 -1.7 99
2019-11-17 16:00:00 6.9 0 Calma 4 Oeste 1.8 992.7 -2.3 99
2019-11-17 15:00:00 6.6 3 Noroeste 5 Noroeste 1.1 993.2 -2.9 99
2019-11-17 14:00:00 6.3 0 Calma 6 Noroeste 1 993.9 -2.2 98
2019-11-17 13:00:00 5.9 3 Noroeste 12 Noroeste 1.6 995 -0.9 98
2019-11-17 12:00:00 5 10 Noroeste 15 Noroeste 0.4 996.1 0.4 96
2019-11-17 11:00:00 4.9 3 Noroeste 5 Noroeste 0.1 996.1 0.7 87
2019-11-17 10:00:00 3.5 0 Calma 5 Oeste 0 995.9 1 90
2019-11-17 09:00:00 1.6 0 Calma 3 Oeste 0 995.7 0.7 99
2019-11-17 08:00:00 0 0 Calma 4 Sudeste 0 995.4 0.8 99
2019-11-17 07:00:00 -0.4 0 Calma 4 Este 0 994.9 0.2 99
2019-11-17 06:00:00 -1 0 Calma 5 Sudeste 0 995 0.1 99
2019-11-17 05:00:00 -0.5 0 Calma 4 Este 0 994.6 0.1 99
2019-11-17 04:00:00 -0.4 0 Calma -- -- 0 994.7 -0.2 99
2019-11-17 03:00:00 -0.4 0 Calma 0 Calma 0 994.9 0.1 99
2019-11-17 02:00:00 0.3 0 Calma 5 Este 0 994.5 -0.2 99
2019-11-17 01:00:00 0.4 4 Este 6 Este 0 994.9 0.2 98
2019-11-17 00:00:00 0.9 4 Oeste 6 Oeste 0 994.8 0.6 96
2019-11-16 23:00:00 2.7 2 Sudoeste 6 Sudoeste 0 994.7 0.9 92
2019-11-16 22:00:00 3 0 Calma 8 Noroeste 0 994.7 1.4 89
2019-11-16 21:00:00 4.6 0 Calma 4 Sudoeste 0 994.2 1.8 81
2019-11-16 20:00:00 5.7 0 Calma 6 Noroeste 0 993.8 1.6 71
2019-11-16 19:00:00 7.4 3 Oeste 12 Sudoeste 0 993.3 1.6 57
2019-11-16 18:00:00 10.8 10 Oeste 19 Oeste 0 992.4 0.9 45
2019-11-16 17:00:00 12.6 12 Oeste 21 Oeste 0 992.2 0.6 39
2019-11-16 16:00:00 13.4 10 Oeste 17 Sudoeste 0 991.7 -0.4 39
2019-11-16 15:00:00 13.3 6 Sudoeste 16 Oeste 0 991.5 -1.2 38
2019-11-16 14:00:00 12.1 7 Sudoeste 16 Sudoeste 0 991.6 -1 42
2019-11-16 13:00:00 11.3 3 Oeste 12 Oeste 0 992.1 0.1 44
2019-11-16 12:00:00 8.8 6 Oeste 12 Noroeste 0 992.7 1.1 60
2019-11-16 11:00:00 5.6 3 Oeste 7 Oeste 0 992.6 2.3 83
2019-11-16 10:00:00 2.1 3 Este 9 Este 0 992 2.6 99
2019-11-16 09:00:00 -0.3 0 Calma 7 Sudoeste 0 991.6 3.7 99
2019-11-16 08:00:00 -1.7 0 Calma 8 Este 0 990.3 2.7 99
2019-11-16 07:00:00 -1 2 Este 8 Oeste 0 989.4 2.3 99
2019-11-16 06:00:00 -1.4 0 Calma 5 Sudeste 0 987.9 1.1 99
2019-11-16 05:00:00 -1 0 Calma 3 Sur 0 987.6 1.3 99
2019-11-16 04:00:00 0 0 Calma 8 Este 0 987.1 1 99
2019-11-16 03:00:00 0 0 Calma 5 Sudeste 0 986.8 1.1 99
2019-11-16 02:00:00 0.9 0 Calma 5 Oeste 0 986.3 0.8 99
2019-11-16 01:00:00 0.8 0 Calma 5 Sudoeste 0 986.1 1.1 99
2019-11-16 00:00:00 1.4 2 Oeste 4 Noroeste 0 985.7 1.3 98